Bei Facebook empfehlenBei Twitter postenGoogle plusPinterest

Das Wetter im Erzgebirge am 22.12.2014

Wetter und Klima am 22.12.2014 Holzhau im Erzgebirge (630m ü.NN)
Letzte gemessene Temperatur und Uhrzeit der Messung23:45:00 Uhr6.60 °C
Temperatur (Maximum / Höchstwert) und Uhrzeit der Messung23:00:00 Uhr6.90 °C
Temperatur (Minimum / Tiefstwert) und Uhrzeit der Messung00:15:003.20 °C
Errechneter Absolutwert der Temperaturschwankungen zwischen Tmin und Tmax des Tages3.70 K
Errechnete Tagesmitteltemperatur5.41875 °C
Gesamt - Niederschlag des Tages (in flüssiger Form)0.00 Liter / m²
Luftdruck (Maximum / Höchstwert) und Zeitpunkt der Messung00:00:00 Uhr1017.90 hPa
Luftdruck (Minimum / Tiefstwert) und Zeitpunkt der Messung14:30:00 Uhr1012.10 hPa
Errechneter Absolutwert der Luftdruckschwankungen des Tages5.80 hPa
Höchste gemessene Windgeschwindigkeit und Uhrzeit der Messung09:45:00 Uhr18.00 km/h
Errechnete Windhäufigkeit in Relation zu den Messwerten des Tages53.12500 %
Niedrigste Windkühle (Windchill) und Zeitpunkt der Messung03:00:00 Uhr0.20 °C
Taupunkt (Maximum / Höchstwert) und Uhrzeit der Messung23:00:00 Uhr4.70 °C
Taupunkt (Minimum / Tiefstwert) und Uhrzeit der Messung01:15:001.40 °C
Anzahl der automatisch eingelesenen Messwerte 96

Detaillierte Wetter- und Klima- Messwerte für den 22.12.2014 in Holzhau im Erzgebirge (630m ü.NN)
ZeitTemperaturLuftdruckRel. LuftfeuchteWindWindrichtungWindchillTaupunktNiederschlag l/m²
23:45:006.60 °C1013.50 hPa87.00 %4.60 °C 
23:30:006.60 °C1013.60 hPa87.00 %7.56 km/hNW5.10 °C4.60 °C 
23:15:006.80 °C1013.60 hPa86.00 %4.60 °C 
23:00:006.90 °C1013.80 hPa86.00 %8.28 km/hWSW5.30 °C4.70 °C 
22:45:006.80 °C1013.60 hPa86.00 %5.04 km/hWSW6.10 °C4.60 °C 
22:30:006.60 °C1013.90 hPa86.00 %4.40 °C 
22:15:006.70 °C1014.10 hPa85.00 %16.92 km/hW3.60 °C4.40 °C 
22:00:006.70 °C1013.90 hPa85.00 %3.24 km/hWNW6.70 °C4.40 °C 
21:45:006.60 °C1014.10 hPa85.00 %14.76 km/hSSW3.80 °C4.30 °C 
21:30:006.50 °C1013.90 hPa85.00 %4.20 °C 
21:15:006.50 °C1014.00 hPa85.00 %4.20 °C 
21:00:006.40 °C1014.20 hPa85.00 %4.10 °C 
20:45:006.40 °C1014.10 hPa85.00 %5.04 km/hWNW5.70 °C4.10 °C 
20:30:006.40 °C1014.00 hPa84.00 %10.80 km/hWSW4.20 °C3.90 °C 
20:15:006.40 °C1014.20 hPa84.00 %3.90 °C 
20:00:006.40 °C1014.00 hPa84.00 %3.90 °C 
19:45:006.30 °C1014.00 hPa84.00 %7.92 km/hNNW4.70 °C3.80 °C 
19:30:006.10 °C1014.20 hPa85.00 %5.40 km/hSW5.20 °C3.80 °C 
19:15:006.10 °C1014.00 hPa85.00 %10.80 km/hN3.80 °C3.80 °C 
19:00:006.20 °C1014.10 hPa85.00 %3.90 °C 
18:45:006.30 °C1014.20 hPa85.00 %4.00 °C 
18:30:006.10 °C1014.00 hPa86.00 %3.90 °C 
18:15:006.10 °C1014.10 hPa87.00 %4.10 °C 
18:00:005.90 °C1013.70 hPa87.00 %6.12 km/hNNW4.70 °C3.90 °C 
17:45:005.80 °C1013.40 hPa87.00 %3.80 °C 
17:30:005.60 °C1013.50 hPa88.00 %3.80 °C 
17:15:005.60 °C1013.50 hPa88.00 %15.12 km/hW2.50 °C3.80 °C 
17:00:005.60 °C1013.40 hPa88.00 %12.96 km/hSSW2.80 °C3.80 °C 
16:45:005.80 °C1013.60 hPa88.00 %4.00 °C 
16:30:005.80 °C1013.60 hPa88.00 %8.64 km/hWNW3.90 °C4.00 °C 
16:15:005.80 °C1013.40 hPa88.00 %4.00 °C 
16:00:005.80 °C1013.10 hPa88.00 %4.00 °C 
15:45:005.90 °C1013.00 hPa88.00 %4.10 °C 
15:30:006.10 °C1012.60 hPa87.00 %5.40 km/hW5.20 °C4.10 °C 
15:15:006.30 °C1012.40 hPa87.00 %7.92 km/hWSW4.70 °C4.30 °C 
15:00:006.40 °C1012.50 hPa87.00 %10.08 km/hSW4.30 °C4.40 °C 
14:45:006.50 °C1012.20 hPa87.00 %4.50 °C 
14:30:006.70 °C1012.10 hPa86.00 %7.20 km/hW5.30 °C4.50 °C 
14:15:006.80 °C1012.30 hPa86.00 %4.60 °C 
14:00:006.90 °C1012.70 hPa86.00 %4.70 °C 
13:45:006.90 °C1012.50 hPa86.00 %9.36 km/hW5.10 °C4.70 °C 
13:30:006.80 °C1012.60 hPa86.00 %4.60 °C 
13:15:006.60 °C1012.60 hPa87.00 %4.68 km/hNNW6.60 °C4.60 °C 
13:00:006.40 °C1012.70 hPa87.00 %4.40 °C 
12:45:006.30 °C1012.80 hPa87.00 %5.04 km/hWNW5.50 °C4.30 °C 
12:30:006.30 °C1013.00 hPa87.00 %9.00 km/hSSW4.40 °C4.30 °C 
12:15:006.40 °C1013.50 hPa87.00 %4.40 °C 
12:00:006.50 °C1013.40 hPa87.00 %4.50 °C 
11:45:006.40 °C1013.40 hPa87.00 %10.08 km/hWSW4.30 °C4.40 °C 
11:30:006.30 °C1013.60 hPa88.00 %4.50 °C 
11:15:006.10 °C1013.70 hPa88.00 %10.80 km/hSW3.80 °C4.30 °C 
11:00:006.10 °C1013.80 hPa88.00 %4.30 °C 
10:45:006.10 °C1013.70 hPa88.00 %9.00 km/hN4.20 °C4.30 °C 
10:30:005.90 °C1013.70 hPa87.00 %9.72 km/hSW3.80 °C3.90 °C 
10:15:005.90 °C1014.00 hPa87.00 %3.90 °C 
10:00:006.10 °C1014.00 hPa88.00 %5.76 km/hNNW5.10 °C4.30 °C 
09:45:005.90 °C1014.20 hPa89.00 %18.00 km/hSW2.40 °C4.20 °C 
09:30:005.60 °C1014.10 hPa89.00 %6.12 km/hW4.40 °C3.90 °C 
09:15:005.50 °C1014.00 hPa89.00 %8.28 km/hWSW3.70 °C3.80 °C 
09:00:005.40 °C1014.20 hPa89.00 %3.70 °C 
08:45:005.40 °C1014.00 hPa88.00 %3.60 °C 
08:30:005.30 °C1013.90 hPa88.00 %3.50 °C 
08:15:005.20 °C1013.90 hPa88.00 %3.40 °C 
08:00:005.10 °C1013.60 hPa88.00 %3.30 °C 
07:45:005.00 °C1013.60 hPa88.00 %3.20 °C 
07:30:004.90 °C1013.70 hPa88.00 %3.10 °C 
07:15:004.90 °C1013.70 hPa88.00 %3.10 °C 
07:00:004.80 °C1013.60 hPa88.00 %3.00 °C 
06:45:004.80 °C1013.70 hPa88.00 %9.00 km/hNW2.60 °C3.00 °C 
06:30:004.60 °C1013.90 hPa88.00 %2.80 °C 
06:15:004.60 °C1013.60 hPa88.00 %2.80 °C 
06:00:004.40 °C1013.70 hPa88.00 %2.60 °C 
05:45:004.30 °C1013.80 hPa88.00 %8.28 km/hWNW2.20 °C2.50 °C 
05:30:004.10 °C1013.80 hPa88.00 %2.30 °C 
05:15:003.90 °C1013.90 hPa88.00 %2.10 °C 
05:00:003.80 °C1014.10 hPa88.00 %2.00 °C 
04:45:003.70 °C1014.40 hPa88.00 %5.04 km/hSSW2.60 °C1.90 °C 
04:30:003.60 °C1014.30 hPa88.00 %6.84 km/hWNW1.80 °C1.80 °C 
04:15:003.60 °C1014.70 hPa88.00 %4.68 km/hWNW3.60 °C1.80 °C 
04:00:003.60 °C1014.80 hPa88.00 %5.04 km/hWNW2.50 °C1.80 °C 
03:45:003.60 °C1015.10 hPa88.00 %5.40 km/hW2.30 °C1.80 °C 
03:30:003.60 °C1015.40 hPa88.00 %11.52 km/hW0.70 °C1.80 °C 
03:15:003.60 °C1015.30 hPa88.00 %12.60 km/hWSW0.40 °C1.80 °C 
03:00:003.50 °C1015.60 hPa88.00 %13.32 km/hW0.20 °C1.70 °C 
02:45:003.50 °C1015.60 hPa88.00 %9.00 km/hW1.10 °C1.70 °C 
02:30:003.50 °C1015.60 hPa87.00 %1.50 °C 
02:15:003.60 °C1015.90 hPa87.00 %6.84 km/hWNW1.80 °C1.60 °C 
02:00:003.60 °C1015.90 hPa87.00 %5.04 km/hSSW2.50 °C1.60 °C 
01:45:003.50 °C1015.90 hPa87.00 %5.40 km/hW2.20 °C1.50 °C 
01:30:003.50 °C1016.00 hPa87.00 %6.84 km/hWNW1.70 °C1.50 °C 
01:15:003.40 °C1016.50 hPa87.00 %9.36 km/hSW0.90 °C1.40 °C 
01:00:003.40 °C1016.60 hPa88.00 %5.40 km/hWSW2.10 °C1.60 °C 
00:45:003.30 °C1016.90 hPa88.00 %5.40 km/hWSW2.00 °C1.50 °C 
00:30:003.30 °C1017.30 hPa88.00 %3.24 km/hWNW3.30 °C1.50 °C 
00:15:003.20 °C1017.30 hPa88.00 %1.40 °C 
00:00:003.20 °C1017.90 hPa89.00 %6.12 km/hWNW1.60 °C1.60 °C 

Permanenter Link zu dieser Seite: Wetter im Erzgebirge am 22.12.2014
Performance-Info: Die Erstellung der Seite / Statistik(en) / Tabelle(n) erforderte 5 Datenbankserver-Abfrage(n) und dauerte 104 Millisekunden. (Dieser Messwert ist von der Gesamt-Auslastung des Servers abhängig.)
Erzgebirge - Wetter | Erzgebirge - Wetter (Mobilgeräte) | Komplette Klimadatenbank